Campbell AAF (Fort Campbell) Air Field
KHOP : now visible

Airfield :











YOU CAN JOIN US ON...

 
LOGIN :

Register | Disclaimer

   EN    FR    IT 

 









Legend :    VFR   Marginal VFR   IFR   Intensive IFR   Very Intensive IFR
Visi :
Ceiling :
>= 8 km
>= 3000ft
5 to 8 km
1000 to 3000 ft
1500m to 5 km
500 to 1000 ft
800 to 1500m
200 to 500 ft
< 800m
< 200 ft
Symbols :   Thunderstorms  Fog  Heavy snow  Heavy precipitations  Wind > 20 kt






- Airport Elevation : 573 ft


KHOP - Campbell AAF (Fort Campbell) Air Field

CURRENT METAR :
  • 260411Z AUTO 21007KT 8SM BKN004 BKN018 OVC026 13/13 A2960 RMK AO2 SLP025

EXPIRED METARs :
  • 260356Z AUTO 00000KT 4SM BR OVC003 12/12 A2960 RMK AO2 OVC V BKN SLP026 T01230123
  • 260337Z AUTO 35004KT 1/2SM R23/2600V3000FT FG BKN003 BKN085 11/11 A2959 RMK AO2 CIG 003V085 SLP022
  • 260311Z AUTO 14003KT 1 1/8SM BR FEW020 12/12 A2958 RMK AO2 VIS 1 1/8V1 5/8 SLP019
  • 260256Z AUTO 00000KT 6SM BR SCT020 12/12 A2958 RMK AO2 SLP019 60000 T01240124 56009
  • 260156Z AUTO 13006KT 10SM SCT035 BKN044 BKN090 13/13 A2958 RMK AO2 LTG DSNT SE SLP019 T01250125

TAF AMD TAF KHOP
Valid from the 26 at 02:00 until the 27 at 06:00 UTC


260201Z 2602/2706 12012KT 9999 SCT002 BKN020 520005 QNH2958INS
TEMPO 2602/2605 OVC002
BECMG 2605/2606 12012KT 9000 BR OVC005 520005 QNH2961INS
BECMG 2617/2618 18012KT 9999 NSW BKN015 520005 QNH2973INS TX13/2616Z TN06/2612Z
KZME FIR / North America



MET'MAP, your aeronautical weather chart ! - Copyright ORBIFLY December 2007 - Disclaimer

ORBIFLY MET'MAP TEAM :

Programming & Development : Alexandra Zaïnal
Concept & original design : Baudouin d'Aumeries
Assistance for programming : Marc-Olivier Méhu
Technical & hardware support : Manuel Goepfert

Contact : metmap@orbifly.com




SOURCES & CREDITS :

   NOAA       Earth
Advisory